sensor_id;sensor_type;location;lat;lon;timestamp;P1;durP1;ratioP1;P2;durP2;ratioP2
45254;SDS011;30989;52.078;21.014;2023-06-14T00:01:47;10.32;;;4.78;;
45254;SDS011;30989;52.078;21.014;2023-06-14T00:04:13;7.32;;;4.07;;
45254;SDS011;30989;52.078;21.014;2023-06-14T00:06:41;6.40;;;3.35;;
45254;SDS011;30989;52.078;21.014;2023-06-14T00:09:10;7.80;;;3.90;;
45254;SDS011;30989;52.078;21.014;2023-06-14T00:11:38;9.77;;;4.60;;
45254;SDS011;30989;52.078;21.014;2023-06-14T00:14:04;9.32;;;3.42;;
45254;SDS011;30989;52.078;21.014;2023-06-14T00:16:30;6.68;;;3.50;;
45254;SDS011;30989;52.078;21.014;2023-06-14T00:18:57;7.55;;;3.95;;
45254;SDS011;30989;52.078;21.014;2023-06-14T00:21:23;12.00;;;3.25;;
45254;SDS011;30989;52.078;21.014;2023-06-14T00:23:48;4.85;;;2.95;;
45254;SDS011;30989;52.078;21.014;2023-06-14T00:26:14;5.00;;;3.25;;
45254;SDS011;30989;52.078;21.014;2023-06-14T00:28:41;8.95;;;4.53;;
45254;SDS011;30989;52.078;21.014;2023-06-14T00:31:06;8.07;;;3.50;;
45254;SDS011;30989;52.078;21.014;2023-06-14T00:33:32;7.90;;;3.80;;
45254;SDS011;30989;52.078;21.014;2023-06-14T00:35:57;8.40;;;4.25;;
45254;SDS011;30989;52.078;21.014;2023-06-14T00:38:23;9.60;;;4.15;;
45254;SDS011;30989;52.078;21.014;2023-06-14T00:40:48;5.43;;;3.13;;
45254;SDS011;30989;52.078;21.014;2023-06-14T00:43:13;5.63;;;3.33;;
45254;SDS011;30989;52.078;21.014;2023-06-14T00:45:39;7.13;;;3.70;;
45254;SDS011;30989;52.078;21.014;2023-06-14T00:48:05;6.03;;;3.67;;
45254;SDS011;30989;52.078;21.014;2023-06-14T00:50:32;9.45;;;4.35;;
45254;SDS011;30989;52.078;21.014;2023-06-14T00:53:01;11.02;;;3.92;;
45254;SDS011;30989;52.078;21.014;2023-06-14T00:55:28;7.13;;;4.28;;
45254;SDS011;30989;52.078;21.014;2023-06-14T00:57:54;8.90;;;4.63;;
45254;SDS011;30989;52.078;21.014;2023-06-14T01:00:21;8.18;;;4.30;;
45254;SDS011;30989;52.078;21.014;2023-06-14T01:02:46;8.23;;;4.15;;
45254;SDS011;30989;52.078;21.014;2023-06-14T01:05:12;8.30;;;5.25;;
45254;SDS011;30989;52.078;21.014;2023-06-14T01:10:35;8.85;;;4.45;;
45254;SDS011;30989;52.078;21.014;2023-06-14T01:13:05;8.65;;;4.30;;
45254;SDS011;30989;52.078;21.014;2023-06-14T01:15:52;8.07;;;4.00;;
45254;SDS011;30989;52.078;21.014;2023-06-14T01:18:20;11.40;;;4.78;;
45254;SDS011;30989;52.078;21.014;2023-06-14T01:20:49;7.90;;;4.32;;
45254;SDS011;30989;52.078;21.014;2023-06-14T01:23:16;7.82;;;4.70;;
45254;SDS011;30989;52.078;21.014;2023-06-14T01:25:42;8.10;;;4.63;;
45254;SDS011;30989;52.078;21.014;2023-06-14T01:28:11;9.60;;;4.30;;
45254;SDS011;30989;52.078;21.014;2023-06-14T01:30:38;9.00;;;4.40;;
45254;SDS011;30989;52.078;21.014;2023-06-14T01:33:11;9.82;;;4.68;;
45254;SDS011;30989;52.078;21.014;2023-06-14T01:35:39;8.10;;;4.75;;
45254;SDS011;30989;52.078;21.014;2023-06-14T01:38:06;6.82;;;3.60;;
45254;SDS011;30989;52.078;21.014;2023-06-14T01:40:33;7.72;;;3.63;;
45254;SDS011;30989;52.078;21.014;2023-06-14T01:43:00;7.20;;;4.57;;
45254;SDS011;30989;52.078;21.014;2023-06-14T01:45:26;9.20;;;4.57;;
45254;SDS011;30989;52.078;21.014;2023-06-14T01:47:56;8.73;;;4.20;;
45254;SDS011;30989;52.078;21.014;2023-06-14T01:50:21;10.77;;;4.70;;
45254;SDS011;30989;52.078;21.014;2023-06-14T01:52:47;10.00;;;4.80;;
45254;SDS011;30989;52.078;21.014;2023-06-14T01:55:12;9.18;;;4.45;;
45254;SDS011;30989;52.078;21.014;2023-06-14T01:57:38;8.20;;;4.93;;
45254;SDS011;30989;52.078;21.014;2023-06-14T02:00:04;11.68;;;4.72;;
45254;SDS011;30989;52.078;21.014;2023-06-14T02:02:38;9.98;;;5.18;;
45254;SDS011;30989;52.078;21.014;2023-06-14T02:05:04;9.23;;;4.55;;
45254;SDS011;30989;52.078;21.014;2023-06-14T02:07:30;9.15;;;4.70;;
45254;SDS011;30989;52.078;21.014;2023-06-14T02:09:55;9.32;;;5.10;;
45254;SDS011;30989;52.078;21.014;2023-06-14T02:12:22;8.60;;;4.78;;
45254;SDS011;30989;52.078;21.014;2023-06-14T02:14:47;6.45;;;4.00;;
45254;SDS011;30989;52.078;21.014;2023-06-14T02:17:13;9.02;;;4.90;;
45254;SDS011;30989;52.078;21.014;2023-06-14T02:19:40;6.95;;;4.03;;
45254;SDS011;30989;52.078;21.014;2023-06-14T02:22:05;9.50;;;4.68;;
45254;SDS011;30989;52.078;21.014;2023-06-14T02:24:33;9.20;;;4.85;;
45254;SDS011;30989;52.078;21.014;2023-06-14T02:26:59;8.52;;;4.03;;
45254;SDS011;30989;52.078;21.014;2023-06-14T02:29:25;8.25;;;4.13;;
45254;SDS011;30989;52.078;21.014;2023-06-14T02:31:50;8.57;;;4.32;;
45254;SDS011;30989;52.078;21.014;2023-06-14T02:34:19;8.05;;;4.85;;
45254;SDS011;30989;52.078;21.014;2023-06-14T02:36:46;8.70;;;4.80;;
45254;SDS011;30989;52.078;21.014;2023-06-14T02:39:12;8.15;;;4.93;;
45254;SDS011;30989;52.078;21.014;2023-06-14T02:41:38;7.22;;;3.75;;
45254;SDS011;30989;52.078;21.014;2023-06-14T02:44:04;9.65;;;4.70;;
45254;SDS011;30989;52.078;21.014;2023-06-14T02:46:29;9.18;;;4.47;;
45254;SDS011;30989;52.078;21.014;2023-06-14T02:48:55;7.13;;;4.20;;
45254;SDS011;30989;52.078;21.014;2023-06-14T02:51:20;11.48;;;5.00;;
45254;SDS011;30989;52.078;21.014;2023-06-14T02:53:46;8.80;;;4.72;;
45254;SDS011;30989;52.078;21.014;2023-06-14T02:56:11;8.68;;;4.63;;
45254;SDS011;30989;52.078;21.014;2023-06-14T02:58:37;7.20;;;4.43;;
45254;SDS011;30989;52.078;21.014;2023-06-14T03:01:04;8.73;;;5.25;;
45254;SDS011;30989;52.078;21.014;2023-06-14T03:03:33;10.63;;;5.65;;
45254;SDS011;30989;52.078;21.014;2023-06-14T03:05:58;8.70;;;4.72;;
45254;SDS011;30989;52.078;21.014;2023-06-14T03:08:31;11.43;;;4.70;;
45254;SDS011;30989;52.078;21.014;2023-06-14T03:11:06;14.15;;;5.07;;
45254;SDS011;30989;52.078;21.014;2023-06-14T03:13:34;11.55;;;4.40;;
45254;SDS011;30989;52.078;21.014;2023-06-14T03:16:02;8.55;;;4.93;;
45254;SDS011;30989;52.078;21.014;2023-06-14T03:18:31;8.85;;;4.97;;
45254;SDS011;30989;52.078;21.014;2023-06-14T03:21:03;9.43;;;4.10;;
45254;SDS011;30989;52.078;21.014;2023-06-14T03:23:30;10.55;;;5.28;;
45254;SDS011;30989;52.078;21.014;2023-06-14T03:25:56;11.48;;;5.05;;
45254;SDS011;30989;52.078;21.014;2023-06-14T03:28:22;7.32;;;4.07;;
45254;SDS011;30989;52.078;21.014;2023-06-14T03:30:48;10.00;;;4.40;;
45254;SDS011;30989;52.078;21.014;2023-06-14T03:33:14;10.10;;;4.70;;
45254;SDS011;30989;52.078;21.014;2023-06-14T03:35:41;9.93;;;3.88;;
45254;SDS011;30989;52.078;21.014;2023-06-14T03:38:07;11.90;;;4.97;;
45254;SDS011;30989;52.078;21.014;2023-06-14T03:40:32;12.32;;;4.30;;
45254;SDS011;30989;52.078;21.014;2023-06-14T03:43:01;10.80;;;4.07;;
45254;SDS011;30989;52.078;21.014;2023-06-14T03:45:27;8.52;;;3.95;;
45254;SDS011;30989;52.078;21.014;2023-06-14T03:47:52;7.30;;;4.22;;
45254;SDS011;30989;52.078;21.014;2023-06-14T03:50:18;6.95;;;3.85;;
45254;SDS011;30989;52.078;21.014;2023-06-14T03:52:44;10.43;;;4.40;;
45254;SDS011;30989;52.078;21.014;2023-06-14T03:55:10;8.68;;;4.32;;
45254;SDS011;30989;52.078;21.014;2023-06-14T03:57:39;5.75;;;3.88;;
45254;SDS011;30989;52.078;21.014;2023-06-14T04:00:09;10.05;;;4.25;;
45254;SDS011;30989;52.078;21.014;2023-06-14T04:02:39;7.90;;;4.38;;
45254;SDS011;30989;52.078;21.014;2023-06-14T04:05:06;9.90;;;4.68;;
45254;SDS011;30989;52.078;21.014;2023-06-14T04:07:36;11.65;;;4.57;;
45254;SDS011;30989;52.078;21.014;2023-06-14T04:10:08;9.40;;;4.53;;
45254;SDS011;30989;52.078;21.014;2023-06-14T04:12:33;11.18;;;4.60;;
45254;SDS011;30989;52.078;21.014;2023-06-14T04:14:59;9.23;;;4.07;;
45254;SDS011;30989;52.078;21.014;2023-06-14T04:17:27;7.60;;;3.78;;
45254;SDS011;30989;52.078;21.014;2023-06-14T04:19:53;8.38;;;4.65;;
45254;SDS011;30989;52.078;21.014;2023-06-14T04:22:19;9.20;;;4.20;;
45254;SDS011;30989;52.078;21.014;2023-06-14T04:24:44;7.38;;;4.13;;
45254;SDS011;30989;52.078;21.014;2023-06-14T04:27:11;8.90;;;4.47;;
45254;SDS011;30989;52.078;21.014;2023-06-14T04:29:37;7.10;;;4.07;;
45254;SDS011;30989;52.078;21.014;2023-06-14T04:32:07;10.82;;;3.67;;
45254;SDS011;30989;52.078;21.014;2023-06-14T04:34:36;6.63;;;4.47;;
45254;SDS011;30989;52.078;21.014;2023-06-14T04:37:03;6.65;;;3.55;;
45254;SDS011;30989;52.078;21.014;2023-06-14T04:39:35;10.27;;;4.18;;
45254;SDS011;30989;52.078;21.014;2023-06-14T04:42:01;7.85;;;4.47;;
45254;SDS011;30989;52.078;21.014;2023-06-14T04:44:28;7.90;;;3.42;;
45254;SDS011;30989;52.078;21.014;2023-06-14T04:46:59;8.18;;;4.65;;
45254;SDS011;30989;52.078;21.014;2023-06-14T04:49:25;10.70;;;3.85;;
45254;SDS011;30989;52.078;21.014;2023-06-14T04:51:52;7.40;;;3.60;;
45254;SDS011;30989;52.078;21.014;2023-06-14T04:54:23;9.30;;;4.15;;
45254;SDS011;30989;52.078;21.014;2023-06-14T04:56:50;7.60;;;4.07;;
45254;SDS011;30989;52.078;21.014;2023-06-14T04:59:19;7.75;;;3.70;;
45254;SDS011;30989;52.078;21.014;2023-06-14T05:01:45;8.02;;;3.88;;
45254;SDS011;30989;52.078;21.014;2023-06-14T05:04:14;13.88;;;3.95;;
45254;SDS011;30989;52.078;21.014;2023-06-14T05:06:41;7.60;;;4.28;;
45254;SDS011;30989;52.078;21.014;2023-06-14T05:09:07;7.18;;;3.92;;
45254;SDS011;30989;52.078;21.014;2023-06-14T05:11:32;8.43;;;3.58;;
45254;SDS011;30989;52.078;21.014;2023-06-14T05:13:58;8.65;;;3.40;;
45254;SDS011;30989;52.078;21.014;2023-06-14T05:16:23;7.07;;;3.33;;
45254;SDS011;30989;52.078;21.014;2023-06-14T05:18:50;7.68;;;3.90;;
45254;SDS011;30989;52.078;21.014;2023-06-14T05:21:17;9.32;;;4.13;;
45254;SDS011;30989;52.078;21.014;2023-06-14T05:23:43;8.07;;;3.72;;
45254;SDS011;30989;52.078;21.014;2023-06-14T05:26:11;8.88;;;3.90;;
45254;SDS011;30989;52.078;21.014;2023-06-14T05:28:37;5.65;;;3.83;;
45254;SDS011;30989;52.078;21.014;2023-06-14T05:31:02;6.05;;;3.45;;
45254;SDS011;30989;52.078;21.014;2023-06-14T05:33:28;6.72;;;3.60;;
45254;SDS011;30989;52.078;21.014;2023-06-14T05:35:53;10.02;;;3.72;;
45254;SDS011;30989;52.078;21.014;2023-06-14T05:38:19;7.18;;;3.90;;
45254;SDS011;30989;52.078;21.014;2023-06-14T05:40:44;6.10;;;3.65;;
45254;SDS011;30989;52.078;21.014;2023-06-14T05:43:10;7.38;;;4.13;;
45254;SDS011;30989;52.078;21.014;2023-06-14T05:45:35;5.57;;;3.42;;
45254;SDS011;30989;52.078;21.014;2023-06-14T05:48:01;7.65;;;3.28;;
45254;SDS011;30989;52.078;21.014;2023-06-14T05:50:26;7.70;;;3.90;;
45254;SDS011;30989;52.078;21.014;2023-06-14T05:52:52;8.68;;;3.40;;
45254;SDS011;30989;52.078;21.014;2023-06-14T05:55:19;7.40;;;3.90;;
45254;SDS011;30989;52.078;21.014;2023-06-14T05:57:44;7.00;;;3.08;;
45254;SDS011;30989;52.078;21.014;2023-06-14T06:00:10;7.60;;;3.92;;
45254;SDS011;30989;52.078;21.014;2023-06-14T06:02:39;8.03;;;4.17;;
45254;SDS011;30989;52.078;21.014;2023-06-14T06:05:06;11.60;;;3.42;;
45254;SDS011;30989;52.078;21.014;2023-06-14T06:07:31;7.68;;;3.90;;
45254;SDS011;30989;52.078;21.014;2023-06-14T06:09:57;11.05;;;4.45;;
45254;SDS011;30989;52.078;21.014;2023-06-14T06:12:22;8.77;;;3.67;;
45254;SDS011;30989;52.078;21.014;2023-06-14T06:14:48;7.75;;;3.63;;
45254;SDS011;30989;52.078;21.014;2023-06-14T06:17:13;7.38;;;4.00;;
45254;SDS011;30989;52.078;21.014;2023-06-14T06:19:39;8.27;;;3.78;;
45254;SDS011;30989;52.078;21.014;2023-06-14T06:22:05;6.70;;;3.22;;
45254;SDS011;30989;52.078;21.014;2023-06-14T06:24:31;9.55;;;3.95;;
45254;SDS011;30989;52.078;21.014;2023-06-14T06:26:57;7.20;;;3.72;;
45254;SDS011;30989;52.078;21.014;2023-06-14T06:29:22;11.02;;;4.05;;
45254;SDS011;30989;52.078;21.014;2023-06-14T06:31:48;10.98;;;3.88;;
45254;SDS011;30989;52.078;21.014;2023-06-14T06:34:13;10.90;;;3.42;;
45254;SDS011;30989;52.078;21.014;2023-06-14T06:36:39;7.53;;;4.22;;
45254;SDS011;30989;52.078;21.014;2023-06-14T06:39:04;10.50;;;4.05;;
45254;SDS011;30989;52.078;21.014;2023-06-14T06:41:35;8.57;;;4.03;;
45254;SDS011;30989;52.078;21.014;2023-06-14T06:44:05;8.90;;;3.42;;
45254;SDS011;30989;52.078;21.014;2023-06-14T06:46:32;5.57;;;3.10;;
45254;SDS011;30989;52.078;21.014;2023-06-14T06:48:58;10.48;;;3.33;;
45254;SDS011;30989;52.078;21.014;2023-06-14T06:51:24;6.45;;;3.65;;
45254;SDS011;30989;52.078;21.014;2023-06-14T06:53:53;7.65;;;3.08;;
45254;SDS011;30989;52.078;21.014;2023-06-14T06:56:19;5.40;;;3.05;;
45254;SDS011;30989;52.078;21.014;2023-06-14T06:58:44;5.20;;;2.60;;
45254;SDS011;30989;52.078;21.014;2023-06-14T07:01:10;12.82;;;3.10;;
45254;SDS011;30989;52.078;21.014;2023-06-14T07:03:36;7.93;;;3.05;;
45254;SDS011;30989;52.078;21.014;2023-06-14T07:06:02;7.00;;;3.08;;
45254;SDS011;30989;52.078;21.014;2023-06-14T07:08:27;9.25;;;3.83;;
45254;SDS011;30989;52.078;21.014;2023-06-14T07:10:53;4.78;;;2.80;;
45254;SDS011;30989;52.078;21.014;2023-06-14T07:13:18;5.72;;;3.35;;
45254;SDS011;30989;52.078;21.014;2023-06-14T07:15:44;7.32;;;3.50;;
45254;SDS011;30989;52.078;21.014;2023-06-14T07:18:09;7.22;;;3.00;;
45254;SDS011;30989;52.078;21.014;2023-06-14T07:20:35;6.22;;;3.63;;
45254;SDS011;30989;52.078;21.014;2023-06-14T07:23:03;7.72;;;3.30;;
45254;SDS011;30989;52.078;21.014;2023-06-14T07:25:29;5.07;;;2.72;;
45254;SDS011;30989;52.078;21.014;2023-06-14T07:27:54;5.50;;;2.95;;
45254;SDS011;30989;52.078;21.014;2023-06-14T07:30:20;7.93;;;3.35;;
45254;SDS011;30989;52.078;21.014;2023-06-14T07:32:46;7.85;;;3.22;;
45254;SDS011;30989;52.078;21.014;2023-06-14T07:35:11;9.48;;;3.30;;
45254;SDS011;30989;52.078;21.014;2023-06-14T07:37:36;5.20;;;2.97;;
45254;SDS011;30989;52.078;21.014;2023-06-14T07:40:02;6.40;;;3.25;;
45254;SDS011;30989;52.078;21.014;2023-06-14T07:42:33;7.03;;;4.07;;
45254;SDS011;30989;52.078;21.014;2023-06-14T07:45:00;9.65;;;3.25;;
45254;SDS011;30989;52.078;21.014;2023-06-14T07:47:25;5.97;;;4.00;;
45254;SDS011;30989;52.078;21.014;2023-06-14T07:49:51;7.03;;;3.83;;
45254;SDS011;30989;52.078;21.014;2023-06-14T07:52:17;6.55;;;3.72;;
45254;SDS011;30989;52.078;21.014;2023-06-14T07:54:42;5.55;;;3.15;;
45254;SDS011;30989;52.078;21.014;2023-06-14T07:57:08;6.55;;;3.05;;
45254;SDS011;30989;52.078;21.014;2023-06-14T07:59:33;7.15;;;3.78;;
45254;SDS011;30989;52.078;21.014;2023-06-14T08:01:59;6.10;;;3.05;;
45254;SDS011;30989;52.078;21.014;2023-06-14T08:04:25;5.75;;;3.00;;
45254;SDS011;30989;52.078;21.014;2023-06-14T08:06:50;10.65;;;4.25;;
45254;SDS011;30989;52.078;21.014;2023-06-14T08:09:15;7.35;;;2.90;;
45254;SDS011;30989;52.078;21.014;2023-06-14T08:11:41;6.45;;;3.08;;
45254;SDS011;30989;52.078;21.014;2023-06-14T08:14:07;7.75;;;3.50;;
45254;SDS011;30989;52.078;21.014;2023-06-14T08:16:33;6.75;;;3.33;;
45254;SDS011;30989;52.078;21.014;2023-06-14T08:18:58;5.93;;;3.65;;
45254;SDS011;30989;52.078;21.014;2023-06-14T08:21:24;8.25;;;3.00;;
45254;SDS011;30989;52.078;21.014;2023-06-14T08:23:54;5.65;;;2.88;;
45254;SDS011;30989;52.078;21.014;2023-06-14T08:26:20;8.10;;;3.03;;
45254;SDS011;30989;52.078;21.014;2023-06-14T08:28:47;7.28;;;3.50;;
45254;SDS011;30989;52.078;21.014;2023-06-14T08:31:12;8.77;;;3.63;;
45254;SDS011;30989;52.078;21.014;2023-06-14T08:33:38;8.77;;;4.10;;
45254;SDS011;30989;52.078;21.014;2023-06-14T08:36:08;8.95;;;4.13;;
45254;SDS011;30989;52.078;21.014;2023-06-14T08:38:33;5.25;;;3.30;;
45254;SDS011;30989;52.078;21.014;2023-06-14T08:40:58;4.22;;;2.63;;
45254;SDS011;30989;52.078;21.014;2023-06-14T08:43:26;10.77;;;3.75;;
45254;SDS011;30989;52.078;21.014;2023-06-14T08:45:53;6.78;;;2.85;;
45254;SDS011;30989;52.078;21.014;2023-06-14T08:48:25;6.85;;;3.28;;
45254;SDS011;30989;52.078;21.014;2023-06-14T08:50:51;7.15;;;2.30;;
45254;SDS011;30989;52.078;21.014;2023-06-14T08:53:26;4.18;;;2.75;;
45254;SDS011;30989;52.078;21.014;2023-06-14T08:55:54;5.57;;;3.03;;
45254;SDS011;30989;52.078;21.014;2023-06-14T08:58:20;4.30;;;2.50;;
45254;SDS011;30989;52.078;21.014;2023-06-14T09:00:49;4.43;;;2.78;;
45254;SDS011;30989;52.078;21.014;2023-06-14T09:03:17;6.60;;;2.50;;
45254;SDS011;30989;52.078;21.014;2023-06-14T09:05:45;6.00;;;2.30;;
45254;SDS011;30989;52.078;21.014;2023-06-14T09:08:11;7.78;;;2.97;;
45254;SDS011;30989;52.078;21.014;2023-06-14T09:10:36;5.38;;;2.67;;
45254;SDS011;30989;52.078;21.014;2023-06-14T09:13:02;6.53;;;2.72;;
45254;SDS011;30989;52.078;21.014;2023-06-14T09:15:32;6.75;;;2.80;;
45254;SDS011;30989;52.078;21.014;2023-06-14T09:17:58;6.15;;;3.38;;
45254;SDS011;30989;52.078;21.014;2023-06-14T09:20:26;7.10;;;3.00;;
45254;SDS011;30989;52.078;21.014;2023-06-14T09:22:54;6.00;;;3.03;;
45254;SDS011;30989;52.078;21.014;2023-06-14T09:25:20;6.30;;;3.00;;
45254;SDS011;30989;52.078;21.014;2023-06-14T09:27:46;5.57;;;3.20;;
45254;SDS011;30989;52.078;21.014;2023-06-14T09:30:12;5.07;;;2.83;;
45254;SDS011;30989;52.078;21.014;2023-06-14T09:32:38;13.80;;;3.80;;
45254;SDS011;30989;52.078;21.014;2023-06-14T09:35:08;6.25;;;2.97;;
45254;SDS011;30989;52.078;21.014;2023-06-14T09:37:34;6.25;;;2.88;;
45254;SDS011;30989;52.078;21.014;2023-06-14T09:40:00;4.00;;;2.38;;
45254;SDS011;30989;52.078;21.014;2023-06-14T09:42:26;6.65;;;2.90;;
45254;SDS011;30989;52.078;21.014;2023-06-14T09:44:54;6.60;;;3.22;;
45254;SDS011;30989;52.078;21.014;2023-06-14T09:47:20;8.45;;;2.88;;
45254;SDS011;30989;52.078;21.014;2023-06-14T09:49:47;4.40;;;2.50;;
45254;SDS011;30989;52.078;21.014;2023-06-14T09:52:19;11.13;;;3.03;;
45254;SDS011;30989;52.078;21.014;2023-06-14T09:54:46;6.68;;;2.97;;
45254;SDS011;30989;52.078;21.014;2023-06-14T09:57:16;4.18;;;2.72;;
45254;SDS011;30989;52.078;21.014;2023-06-14T09:59:46;6.72;;;3.30;;
45254;SDS011;30989;52.078;21.014;2023-06-14T10:04:52;8.82;;;3.13;;
45254;SDS011;30989;52.078;21.014;2023-06-14T10:07:23;9.77;;;2.85;;
45254;SDS011;30989;52.078;21.014;2023-06-14T10:09:52;6.20;;;2.85;;
45254;SDS011;30989;52.078;21.014;2023-06-14T10:12:18;8.02;;;3.47;;
45254;SDS011;30989;52.078;21.014;2023-06-14T10:14:50;6.45;;;2.75;;
45254;SDS011;30989;52.078;21.014;2023-06-14T10:17:33;4.53;;;2.60;;
45254;SDS011;30989;52.078;21.014;2023-06-14T10:22:50;5.47;;;2.75;;
45254;SDS011;30989;52.078;21.014;2023-06-14T10:25:28;6.43;;;2.60;;
45254;SDS011;30989;52.078;21.014;2023-06-14T10:28:14;4.88;;;2.47;;
45254;SDS011;30989;52.078;21.014;2023-06-14T10:30:45;6.13;;;2.67;;
45254;SDS011;30989;52.078;21.014;2023-06-14T10:33:30;4.07;;;2.08;;
45254;SDS011;30989;52.078;21.014;2023-06-14T10:38:36;6.25;;;2.35;;
45254;SDS011;30989;52.078;21.014;2023-06-14T10:41:02;4.80;;;2.38;;
45254;SDS011;30989;52.078;21.014;2023-06-14T10:43:29;5.10;;;2.15;;
45254;SDS011;30989;52.078;21.014;2023-06-14T10:48:48;9.18;;;2.85;;
45254;SDS011;30989;52.078;21.014;2023-06-14T10:51:20;7.00;;;3.00;;
45254;SDS011;30989;52.078;21.014;2023-06-14T10:53:49;7.13;;;2.65;;
45254;SDS011;30989;52.078;21.014;2023-06-14T10:56:27;4.10;;;2.60;;
45254;SDS011;30989;52.078;21.014;2023-06-14T10:58:54;5.82;;;2.47;;
45254;SDS011;30989;52.078;21.014;2023-06-14T11:01:32;4.47;;;2.70;;
45254;SDS011;30989;52.078;21.014;2023-06-14T11:04:08;4.55;;;2.33;;
45254;SDS011;30989;52.078;21.014;2023-06-14T11:06:48;5.40;;;1.98;;
45254;SDS011;30989;52.078;21.014;2023-06-14T11:09:31;4.78;;;2.80;;
45254;SDS011;30989;52.078;21.014;2023-06-14T11:12:12;7.88;;;2.35;;
45254;SDS011;30989;52.078;21.014;2023-06-14T11:14:38;6.20;;;2.50;;
45254;SDS011;30989;52.078;21.014;2023-06-14T11:17:04;9.52;;;2.80;;
45254;SDS011;30989;52.078;21.014;2023-06-14T11:19:30;5.60;;;2.63;;
45254;SDS011;30989;52.078;21.014;2023-06-14T11:21:57;6.35;;;2.35;;
45254;SDS011;30989;52.078;21.014;2023-06-14T11:24:22;8.40;;;2.63;;
45254;SDS011;30989;52.078;21.014;2023-06-14T11:26:48;4.68;;;2.50;;
45254;SDS011;30989;52.078;21.014;2023-06-14T11:29:15;3.53;;;2.38;;
45254;SDS011;30989;52.078;21.014;2023-06-14T11:31:44;5.85;;;2.92;;
45254;SDS011;30989;52.078;21.014;2023-06-14T11:34:12;6.95;;;2.45;;
45254;SDS011;30989;52.078;21.014;2023-06-14T11:36:39;6.70;;;2.58;;
45254;SDS011;30989;52.078;21.014;2023-06-14T11:39:05;6.28;;;2.67;;
45254;SDS011;30989;52.078;21.014;2023-06-14T11:41:42;8.95;;;2.78;;
45254;SDS011;30989;52.078;21.014;2023-06-14T11:44:09;8.45;;;3.03;;
45254;SDS011;30989;52.078;21.014;2023-06-14T11:46:35;5.07;;;2.88;;
45254;SDS011;30989;52.078;21.014;2023-06-14T11:49:01;4.03;;;2.50;;
45254;SDS011;30989;52.078;21.014;2023-06-14T11:51:32;4.18;;;2.85;;
45254;SDS011;30989;52.078;21.014;2023-06-14T11:53:58;4.55;;;2.67;;
45254;SDS011;30989;52.078;21.014;2023-06-14T11:56:24;3.72;;;2.00;;
45254;SDS011;30989;52.078;21.014;2023-06-14T11:58:52;6.10;;;1.83;;
45254;SDS011;30989;52.078;21.014;2023-06-14T12:01:21;3.28;;;2.03;;
45254;SDS011;30989;52.078;21.014;2023-06-14T12:03:50;6.53;;;2.20;;
45254;SDS011;30989;52.078;21.014;2023-06-14T12:06:16;4.85;;;1.85;;
45254;SDS011;30989;52.078;21.014;2023-06-14T12:08:50;2.90;;;1.63;;
45254;SDS011;30989;52.078;21.014;2023-06-14T12:11:15;3.72;;;2.03;;
45254;SDS011;30989;52.078;21.014;2023-06-14T12:13:42;6.70;;;2.10;;
45254;SDS011;30989;52.078;21.014;2023-06-14T12:16:08;5.78;;;2.05;;
45254;SDS011;30989;52.078;21.014;2023-06-14T12:18:35;6.28;;;2.20;;
45254;SDS011;30989;52.078;21.014;2023-06-14T12:21:05;4.25;;;1.60;;
45254;SDS011;30989;52.078;21.014;2023-06-14T12:23:47;6.38;;;2.00;;
45254;SDS011;30989;52.078;21.014;2023-06-14T12:26:14;3.50;;;1.77;;
45254;SDS011;30989;52.078;21.014;2023-06-14T12:28:47;2.85;;;1.40;;
45254;SDS011;30989;52.078;21.014;2023-06-14T12:31:14;3.95;;;1.98;;
45254;SDS011;30989;52.078;21.014;2023-06-14T12:33:41;3.28;;;1.40;;
45254;SDS011;30989;52.078;21.014;2023-06-14T12:36:08;4.15;;;1.98;;
45254;SDS011;30989;52.078;21.014;2023-06-14T12:38:35;3.15;;;1.77;;
45254;SDS011;30989;52.078;21.014;2023-06-14T12:41:01;4.32;;;2.00;;
45254;SDS011;30989;52.078;21.014;2023-06-14T12:43:26;4.28;;;1.95;;
45254;SDS011;30989;52.078;21.014;2023-06-14T12:45:52;7.32;;;1.83;;
45254;SDS011;30989;52.078;21.014;2023-06-14T12:48:18;2.78;;;1.60;;
45254;SDS011;30989;52.078;21.014;2023-06-14T12:50:44;4.63;;;1.77;;
45254;SDS011;30989;52.078;21.014;2023-06-14T12:53:09;4.28;;;1.52;;
45254;SDS011;30989;52.078;21.014;2023-06-14T12:55:36;4.32;;;1.35;;
45254;SDS011;30989;52.078;21.014;2023-06-14T12:58:01;2.45;;;1.23;;
45254;SDS011;30989;52.078;21.014;2023-06-14T13:00:27;3.50;;;1.60;;
45254;SDS011;30989;52.078;21.014;2023-06-14T13:02:52;4.97;;;1.50;;
45254;SDS011;30989;52.078;21.014;2023-06-14T13:05:18;6.18;;;1.65;;
45254;SDS011;30989;52.078;21.014;2023-06-14T13:07:44;3.08;;;1.20;;
45254;SDS011;30989;52.078;21.014;2023-06-14T13:10:09;5.97;;;1.73;;
45254;SDS011;30989;52.078;21.014;2023-06-14T13:12:35;3.95;;;1.23;;
45254;SDS011;30989;52.078;21.014;2023-06-14T13:15:01;2.88;;;1.20;;
45254;SDS011;30989;52.078;21.014;2023-06-14T13:17:26;4.95;;;1.63;;
45254;SDS011;30989;52.078;21.014;2023-06-14T13:19:52;2.95;;;1.40;;
45254;SDS011;30989;52.078;21.014;2023-06-14T13:22:17;2.20;;;1.30;;
45254;SDS011;30989;52.078;21.014;2023-06-14T13:24:43;4.00;;;1.70;;
45254;SDS011;30989;52.078;21.014;2023-06-14T13:27:08;4.10;;;1.20;;
45254;SDS011;30989;52.078;21.014;2023-06-14T13:29:34;4.82;;;1.35;;
45254;SDS011;30989;52.078;21.014;2023-06-14T13:32:01;3.13;;;1.67;;
45254;SDS011;30989;52.078;21.014;2023-06-14T13:34:29;2.78;;;1.20;;
45254;SDS011;30989;52.078;21.014;2023-06-14T13:36:54;3.17;;;1.38;;
45254;SDS011;30989;52.078;21.014;2023-06-14T13:39:20;3.15;;;1.38;;
45254;SDS011;30989;52.078;21.014;2023-06-14T13:41:45;3.30;;;1.38;;
45254;SDS011;30989;52.078;21.014;2023-06-14T13:44:11;3.05;;;1.08;;
45254;SDS011;30989;52.078;21.014;2023-06-14T13:46:39;2.60;;;1.20;;
45254;SDS011;30989;52.078;21.014;2023-06-14T13:49:05;3.30;;;1.40;;
45254;SDS011;30989;52.078;21.014;2023-06-14T13:51:31;3.28;;;1.65;;
45254;SDS011;30989;52.078;21.014;2023-06-14T13:53:57;4.88;;;1.67;;
45254;SDS011;30989;52.078;21.014;2023-06-14T13:56:23;3.60;;;1.60;;
45254;SDS011;30989;52.078;21.014;2023-06-14T13:58:49;10.30;;;2.08;;
45254;SDS011;30989;52.078;21.014;2023-06-14T14:01:15;6.03;;;1.88;;
45254;SDS011;30989;52.078;21.014;2023-06-14T14:03:40;8.05;;;2.20;;
45254;SDS011;30989;52.078;21.014;2023-06-14T14:06:06;12.07;;;3.30;;
45254;SDS011;30989;52.078;21.014;2023-06-14T14:08:32;5.65;;;1.60;;
45254;SDS011;30989;52.078;21.014;2023-06-14T14:10:58;4.05;;;2.10;;
45254;SDS011;30989;52.078;21.014;2023-06-14T14:13:23;4.70;;;1.88;;
45254;SDS011;30989;52.078;21.014;2023-06-14T14:15:50;10.50;;;1.73;;
45254;SDS011;30989;52.078;21.014;2023-06-14T14:18:16;3.95;;;1.50;;
45254;SDS011;30989;52.078;21.014;2023-06-14T14:20:41;5.50;;;1.40;;
45254;SDS011;30989;52.078;21.014;2023-06-14T14:23:06;3.97;;;1.98;;
45254;SDS011;30989;52.078;21.014;2023-06-14T14:25:32;3.83;;;1.52;;
45254;SDS011;30989;52.078;21.014;2023-06-14T14:27:57;2.88;;;1.30;;
45254;SDS011;30989;52.078;21.014;2023-06-14T14:30:23;3.50;;;1.23;;
45254;SDS011;30989;52.078;21.014;2023-06-14T14:32:49;5.15;;;1.48;;
45254;SDS011;30989;52.078;21.014;2023-06-14T14:35:16;4.07;;;1.63;;
45254;SDS011;30989;52.078;21.014;2023-06-14T14:37:42;5.93;;;1.60;;
45254;SDS011;30989;52.078;21.014;2023-06-14T14:40:08;5.18;;;1.65;;
45254;SDS011;30989;52.078;21.014;2023-06-14T14:42:34;5.85;;;1.50;;
45254;SDS011;30989;52.078;21.014;2023-06-14T14:45:00;3.40;;;1.30;;
45254;SDS011;30989;52.078;21.014;2023-06-14T14:47:26;3.83;;;1.40;;